Data for 10/01/2008

Time Sea-Level Adjusted Pressure Absolute Pressure Temperature Relative Humidity Dew Point   
(mb) (inHg) (mb) (inHg) (C) (F) (%) (C) (F)
00:05 1025 30.27 855 25.25 14.9 58.7 32 -1.5 29.3
00:10 1025 30.27 855 25.25 14.9 58.7 33 -1.2 29.9
00:15 1025 30.27 855 25.25 14.7 58.5 34 -1 30.2
00:20 1025 30.27 855 25.25 14.4 58 34 -1.1 30
00:25 1026 30.3 855 25.25 14.3 57.8 34 -1.3 29.7
00:30 1026 30.3 855 25.25 14.5 58 34 -1.2 29.9
00:35 1025 30.27 855 25.25 14.3 57.7 36 -0.4 31.3
00:40 1025 30.27 855 25.25 14 57.1 38 0.1 32.1
00:45 1025 30.27 855 25.25 14.1 57.4 38 0.2 32.3
00:50 1025 30.27 855 25.25 14 57.2 39 0.2 32.4
00:55 1025 30.27 855 25.25 13.8 56.9 40 0.5 32.8
01:00 1025 30.27 855 25.25 13.7 56.7 40 0.4 32.6
01:05 1025 30.27 855 25.25 13.7 56.6 39 0.1 32.1
01:10 1025 30.27 855 25.25 13.8 56.8 39 0.1 32.2
01:15 1025 30.27 855 25.25 13.8 56.8 39 0.1 32.1
01:20 1025 30.27 855 25.25 13.7 56.6 38 -0.2 31.7
01:25 1025 30.27 855 25.25 13.5 56.2 40 0.2 32.3
01:30 1025 30.27 854 25.22 13.2 55.7 40 -0.1 31.8
01:35 1025 30.27 854 25.22 13.4 56.1 38 -0.4 31.3
01:40 1025 30.27 854 25.22 13.8 56.8 38 -0.3 31.5
01:45 1025 30.27 854 25.22 13.7 56.7 38 -0.4 31.3
01:50 1025 30.27 854 25.22 13.8 56.9 37 -0.5 31
01:55 1025 30.27 855 25.25 13.9 57.1 37 -0.3 31.5
02:00 1025 30.27 855 25.25 13.8 56.8 37 -0.4 31.3
02:05 1025 30.27 855 25.25 13.5 56.4 35 -1.6 29.2
02:10 1025 30.27 855 25.25 13.6 56.4 32 -2.6 27.3
02:15 1025 30.27 855 25.25 13.8 56.8 32 -2.6 27.3
02:20 1025 30.27 855 25.25 13.6 56.5 32 -2.9 26.8
02:25 1025 30.27 855 25.25 13.7 56.6 32 -2.6 27.4
02:30 1025 30.27 855 25.25 13.7 56.7 33 -2.1 28.2
02:35 1025 30.27 855 25.25 13.7 56.7 32 -2.4 27.6
02:40 1026 30.3 855 25.25 13.9 57 33 -2 28.5
02:45 1026 30.3 855 25.25 14 57.3 34 -1.6 29.1
02:50 1025 30.27 855 25.25 14.2 57.6 33 -1.7 29
02:55 1025 30.27 855 25.25 13.9 57.1 34 -1.5 29.4
03:00 1025 30.27 855 25.25 13.4 56 35 -1.7 29
03:05 1025 30.27 855 25.25 13.2 55.8 36 -1.6 29.1
03:10 1025 30.27 855 25.25 13 55.4 35 -2 28.4
03:15 1025 30.27 855 25.25 13 55.3 35 -1.9 28.5
03:20 1025 30.27 855 25.25 12.7 54.8 36 -1.8 28.8
03:25 1025 30.27 855 25.25 12.5 54.4 37 -1.6 29.1
03:30 1025 30.27 855 25.25 12.4 54.3 35 -2.5 27.6
03:35 1025 30.27 855 25.25 12.7 54.8 33 -3.3 26
03:40 1025 30.27 855 25.25 12.8 55 33 -3.2 26.3
03:45 1025 30.27 855 25.25 12.8 55 34 -2.7 27.2
03:50 1025 30.27 855 25.25 13.2 55.8 35 -2 28.4
03:55 1025 30.27 855 25.25 13.1 55.5 36 -1.6 29.1
04:00 1025 30.27 855 25.25 12.8 55 37 -1.6 29.1
04:05 1025 30.27 855 25.25 12.4 54.2 38 -1.6 29.1
04:10 1025 30.27 855 25.25 12.3 54.2 38 -1.5 29.3
04:15 1025 30.27 855 25.25 12.1 53.8 41 -0.8 30.5
04:20 1025 30.27 855 25.25 12.2 54 38 -1.5 29.3
04:25 1025 30.27 855 25.25 12.1 53.7 39 -1.3 29.7
04:30 1025 30.27 854 25.22 11.8 53.2 40 -1.4 29.4
04:35 1025 30.27 854 25.22 11.7 53 39 -1.7 29
04:40 1025 30.27 855 25.25 11.9 53.4 38 -2.1 28.3
04:45 1025 30.27 855 25.25 12 53.6 37 -2.3 27.9
04:50 1025 30.27 854 25.22 12.1 53.7 37 -2.2 28
04:55 1025 30.27 854 25.22 11.9 53.5 36 -2.7 27.2
05:00 1025 30.27 854 25.22 12 53.6 34 -3.2 26.2
05:05 1025 30.27 854 25.22 12.4 54.3 34 -3 26.5
05:10 1025 30.27 854 25.22 12.1 53.8 36 -2.6 27.3
05:15 1025 30.27 854 25.22 11.9 53.4 37 -2.3 27.9
05:20 1025 30.27 854 25.22 11.7 53.1 37 -2.3 27.9
05:25 1025 30.27 854 25.22 11.8 53.2 37 -2.3 27.8
05:30 1025 30.27 854 25.22 11.8 53.2 37 -2.2 28
05:35 1025 30.27 854 25.22 11.8 53.2 37 -2.4 27.6
05:40 1025 30.27 854 25.22 11.8 53.2 37 -2.6 27.4
05:45 1025 30.27 854 25.22 11.9 53.3 35 -3 26.6
05:50 1025 30.27 854 25.22 11.6 52.8 38 -2.2 28
05:55 1025 30.27 854 25.22 11.1 51.9 35 -3.8 25.2
06:00 1025 30.27 854 25.22 12.1 53.8 34 -3.3 26.1
06:05 1025 30.27 854 25.22 12.1 53.8 35 -2.7 27.1
06:10 1025 30.27 854 25.22 11.8 53.2 36 -2.9 26.8
06:15 1025 30.27 854 25.22 11.9 53.4 36 -2.9 26.9
06:20 1025 30.27 854 25.22 12 53.6 35 -2.9 26.8
06:25 1025 30.27 854 25.22 11.9 53.4 36 -2.6 27.4
06:30 1025 30.27 854 25.22 11.8 53.2 36 -2.9 26.8
06:35 1025 30.27 854 25.22 11.9 53.4 36 -2.8 27
06:40 1025 30.27 854 25.22 12 53.6 35 -2.9 26.8
06:45 1025 30.27 854 25.22 12 53.7 34 -3.1 26.3
06:50 1025 30.27 854 25.22 11.7 53 35 -3.1 26.4
06:55 1025 30.27 854 25.22 11.2 52.1 37 -3 26.6
07:00 1025 30.27 854 25.22 11 51.7 38 -2.9 26.7
07:05 1025 30.27 854 25.22 11.1 52 35 -3.8 25.2
07:10 1025 30.27 854 25.22 11.8 53.2 34 -3.5 25.7
07:15 1025 30.27 854 25.22 11.9 53.4 34 -3.4 25.9
07:20 1025 30.27 854 25.22 12 53.5 33 -3.9 25.1
07:25 1025 30.27 854 25.22 12.3 54.1 33 -3.7 25.4
07:30 1025 30.27 854 25.22 12.3 54.1 33 -3.6 25.6
07:35 1025 30.27 854 25.22 12.2 53.9 34 -3.3 26
07:40 1025 30.27 854 25.22 11.8 53.3 35 -3.2 26.2
07:45 1025 30.27 854 25.22 11.6 52.8 36 -3 26.6
07:50 1025 30.27 855 25.25 11.4 52.6 36 -2.9 26.7
07:55 1025 30.27 855 25.25 11.3 52.4 39 -2.2 28.1
08:00 1025 30.27 855 25.25 11.4 52.5 37 -2.8 26.9
08:05 1026 30.3 855 25.25 11.9 53.3 35 -2.9 26.7
08:10 1026 30.3 855 25.25 12.5 54.6 36 -2.2 28.1
08:15 1026 30.3 855 25.25 12.4 54.4 39 -0.9 30.3
08:20 1026 30.3 855 25.25 11.4 52.6 45 -0.1 31.8
08:25 1026 30.3 855 25.25 10.8 51.4 43 -1.4 29.4
08:30 1026 30.3 855 25.25 10.4 50.6 45 -1.1 30.1
08:35 1026 30.3 855 25.25 10.2 50.3 47 -0.7 30.7
08:40 1026 30.3 855 25.25 10 50 49 -0.3 31.5
08:45 1026 30.3 855 25.25 10 50.1 48 -0.5 31.1
08:50 1026 30.3 855 25.25 10.1 50.2 48 -0.3 31.5
08:55 1026 30.3 855 25.25 9.8 49.7 52 0.6 33.1
09:00 1026 30.3 855 25.25 9.6 49.3 51 -0.1 31.9
09:05 1026 30.3 855 25.25 10.1 50.2 49 0 32.1
09:10 1026 30.3 855 25.25 10.5 50.8 49 0.3 32.5
09:15 1026 30.3 855 25.25 11 51.8 47 0.1 32.2
09:20 1026 30.3 855 25.25 10.9 51.7 49 0.7 33.2
09:25 1026 30.3 855 25.25 10.8 51.4 50 0.7 33.2
09:30 1025 30.27 855 25.25 10.8 51.5 50 0.8 33.5
09:35 1025 30.27 855 25.25 11.1 52 46 0.1 32.2
09:40 1025 30.27 855 25.25 11.6 52.9 46 0.4 32.7
09:45 1025 30.27 854 25.22 11.8 53.3 43 -0.4 31.2
09:50 1025 30.27 854 25.22 12.4 54.3 39 -1 30.2
09:55 1025 30.27 855 25.25 12.7 54.9 37 -1.5 29.4
10:00 1025 30.27 855 25.25 13.4 56.1 34 -2.3 27.9
10:05 1025 30.27 855 25.25 14.6 58.3 33 -1.5 29.3
10:10 1025 30.27 855 25.25 15.3 59.6 32 -1.3 29.7
10:15 1025 30.27 855 25.25 16.3 61.4 27 -2.8 27
10:20 1025 30.27 855 25.25 16.8 62.3 30 -0.9 30.5
10:25 1025 30.27 855 25.25 17.1 62.8 29 -1.1 30.1
10:30 1025 30.27 855 25.25 17.6 63.7 29 -0.4 31.3
10:35 1025 30.27 855 25.25 18.6 65.4 29 0.3 32.5
10:40 1025 30.27 855 25.25 19.1 66.4 29 0.6 33.1
10:45 1025 30.27 855 25.25 19.1 66.4 33 2.7 36.8
10:50 1025 30.27 855 25.25 18.7 65.6 33 2.1 35.7
10:55 1025 30.27 854 25.22 18.1 64.5 30 0.3 32.6
11:00 1025 30.27 854 25.22 18.1 64.6 29 -0.3 31.5
11:05 1025 30.27 854 25.22 18.5 65.3 29 0.4 32.7
11:10 1025 30.27 854 25.22 19.1 66.4 26 -0.5 31.1
11:15 1025 30.27 854 25.22 19.4 66.9 26 -0.2 31.6
11:20 1025 30.27 854 25.22 20.1 68.2 24 -0.7 30.7
11:25 1025 30.27 854 25.22 20.7 69.3 23 -0.9 30.4
11:30 1025 30.27 854 25.22 21.2 70.2 22 -1 30.2
11:35 1025 30.27 854 25.22 21 69.9 24 -0.2 31.6
11:40 1025 30.27 854 25.22 20.6 69.1 26 0.5 33
11:45 1025 30.27 854 25.22 21.1 70 24 -0.1 31.7
11:50 1025 30.27 854 25.22 22 71.6 20 -1.6 29.1
11:55 1025 30.27 854 25.22 22.5 72.6 20 -1.2 29.9
12:00 1025 30.27 854 25.22 22.9 73.2 21 -0.6 30.9
12:05 1025 30.27 854 25.22 23.8 74.9 20 -0.2 31.7
12:10 1024 30.24 854 25.22 22.9 73.2 22 0.1 32.2
12:15 1024 30.24 854 25.22 21.9 71.4 21 -1 30.2
12:20 1024 30.24 854 25.22 23.2 73.7 18 -2 28.4
12:25 1024 30.24 853 25.19 23.7 74.7 17 -2.3 27.9
12:30 1024 30.24 853 25.19 24.6 76.3 18 -0.9 30.3
12:35 1024 30.24 853 25.19 24.7 76.4 18 -1.1 30
12:40 1024 30.24 853 25.19 25 77 17 -1.1 30
12:45 1024 30.24 853 25.19 25.4 77.7 15 -2.6 27.4
12:50 1024 30.24 853 25.19 24.4 75.9 15 -3.7 25.3
12:55 1024 30.24 853 25.19 25.2 77.4 14 -3.6 25.5
13:00 1024 30.24 853 25.19 25.6 78.1 17 -0.9 30.4
13:05 1024 30.24 853 25.19 24.5 76.2 18 -1 30.3
13:10 1024 30.24 853 25.19 24.3 75.7 18 -1.2 29.8
13:15 1024 30.24 853 25.19 23.5 74.3 19 -1 30.2
13:20 1024 30.24 853 25.19 22.6 72.6 19 -1.7 28.9
13:25 1023 30.21 853 25.19 22.8 73 21 -0.5 31.1
13:30 1023 30.21 853 25.19 23.4 74.1 22 0.9 33.6
13:35 1023 30.21 853 25.19 24.3 75.7 20 0 32.1
13:40 1023 30.21 852 25.16 23.9 75.1 20 -0.1 31.8
13:45 1023 30.21 852 25.16 24.5 76.1 18 -1.4 29.5
13:50 1023 30.21 852 25.16 24 75.1 18 -1.3 29.6
13:55 1023 30.21 852 25.16 24.9 76.8 17 -1.8 28.8
14:00 1023 30.21 852 25.16 25.7 78.3 15 -2.4 27.7
14:05 1023 30.21 852 25.16 26.4 79.5 16 -0.8 30.5
14:10 1023 30.21 852 25.16 26.5 79.7 16 -0.7 30.7
14:15 1023 30.21 852 25.16 27.2 81 16 -0.6 31
14:20 1023 30.21 852 25.16 26.8 80.2 15 -1.5 29.3
14:25 1023 30.21 852 25.16 26.9 80.5 15 -1.5 29.2
14:30 1022 30.18 852 25.16 27.2 80.9 15 -1.4 29.5
14:35 1022 30.18 852 25.16 26.6 79.9 15 -1.5 29.3
14:40 1022 30.18 852 25.16 26.5 79.7 15 -2.1 28.3
14:45 1022 30.18 852 25.16 26.4 79.5 16 -0.8 30.6
14:50 1022 30.18 851 25.13 25.8 78.5 17 -0.5 31.2
14:55 1022 30.18 851 25.13 26 78.7 16 -1.9 28.5
15:00 1022 30.18 851 25.13 26 78.8 16 -1.9 28.6
15:05 1022 30.18 851 25.13 26.1 79 16 -1.4 29.5
15:10 1022 30.18 851 25.13 26.6 79.9 15 -1.9 28.5
15:15 1022 30.18 851 25.13 26.9 80.3 16 -1.2 29.9
15:20 1022 30.18 851 25.13 26.8 80.2 15 -1.3 29.6
15:25 1022 30.18 851 25.13 26.1 78.9 15 -1.9 28.6
15:30 1022 30.18 851 25.13 26.4 79.5 15 -2.1 28.3
15:35 1022 30.18 851 25.13 26 78.9 15 -1.9 28.6
15:40 1022 30.18 851 25.13 26.6 79.8 17 -0.1 31.8
15:45 1022 30.18 851 25.13 26.4 79.5 15 -2 28.4
15:50 1022 30.18 851 25.13 26 78.7 15 -2 28.4
15:55 1022 30.18 851 25.13 26.6 79.9 15 -2.2 28
16:00 1022 30.18 851 25.13 26.3 79.3 15 -2.2 28
16:05 1022 30.18 851 25.13 27 80.6 15 -1.9 28.5
16:10 1022 30.18 851 25.13 27.2 81 15 -1.5 29.4
16:15 1021 30.15 851 25.13 27.3 81.1 15 -1.7 29
16:20 1021 30.15 851 25.13 27.7 81.9 14 -2.1 28.3
16:25 1021 30.15 851 25.13 27.3 81.2 14 -2 28.5
16:30 1021 30.15 851 25.13 26.8 80.2 15 -2 28.3
16:35 1021 30.15 851 25.13 27.3 81.1 14 -2 28.5
16:40 1021 30.15 851 25.13 27.2 80.9 15 -1.5 29.3
16:45 1021 30.15 851 25.13 27.3 81.2 15 -1.6 29.2
16:50 1021 30.15 851 25.13 27.1 80.8 14 -2.4 27.7
16:55 1021 30.15 850 25.1 26.9 80.3 16 -1.1 30
17:00 1021 30.15 850 25.1 26.8 80.3 15 -1.9 28.5
17:05 1021 30.15 850 25.1 27.2 80.9 14 -2 28.4
17:10 1021 30.15 850 25.1 27.2 80.9 14 -2 28.3
17:15 1021 30.15 850 25.1 26.9 80.4 15 -1.7 29
17:20 1021 30.15 850 25.1 27 80.5 15 -1.7 29
17:25 1021 30.15 850 25.1 26.6 79.9 15 -2 28.3
17:30 1021 30.15 850 25.1 26.7 80.1 15 -2.2 28.1
17:35 1021 30.15 850 25.1 26.6 80 15 -1.6 29.1
17:40 1021 30.15 850 25.1 27.1 80.7 15 -1.1 30.1
17:45 1021 30.15 850 25.1 27 80.6 16 -1.1 30.1
17:50 1021 30.15 850 25.1 27 80.6 15 -1.5 29.4
17:55 1021 30.15 850 25.1 26.9 80.4 15 -1.4 29.6
18:00 1021 30.15 850 25.1 26 78.8 18 0.1 32.1
18:05 1021 30.15 850 25.1 25.5 77.9 18 -0.2 31.6
18:10 1021 30.15 850 25.1 25.1 77.2 19 0.4 32.8
18:15 1021 30.15 850 25.1 24.8 76.7 21 1.2 34.2
18:20 1021 30.15 850 25.1 24.6 76.3 20 0.7 33.3
18:25 1021 30.15 850 25.1 24.1 75.3 24 2.4 36.3
18:30 1021 30.15 850 25.1 23.4 74.1 24 2 35.6
18:35 1021 30.15 850 25.1 23.2 73.8 23 1.3 34.4
18:40 1021 30.15 850 25.1 23.3 73.9 23 1.2 34.2
18:45 1021 30.15 850 25.1 23.3 73.9 23 1.3 34.4
18:50 1021 30.15 850 25.1 23.1 73.7 23 1.2 34.1
18:55 1021 30.15 850 25.1 23 73.3 23 1 33.9
19:00 1021 30.15 850 25.1 22.6 72.6 24 0.9 33.7
19:05 1021 30.15 850 25.1 22.2 71.9 26 1.8 35.3
19:10 1021 30.15 850 25.1 20.7 69.2 29 2 35.6
19:15 1021 30.15 850 25.1 19.8 67.7 29 1.5 34.7
19:20 1021 30.15 850 25.1 19.7 67.5 29 1.5 34.6
19:25 1021 30.15 850 25.1 19.7 67.5 33 3.1 37.6
19:30 1021 30.15 850 25.1 19.3 66.7 32 2.4 36.2
19:35 1021 30.15 850 25.1 18.8 65.8 32 2.1 35.7
19:40 1021 30.15 850 25.1 18.7 65.6 31 1.3 34.3
19:45 1021 30.15 850 25.1 18.7 65.7 31 1.6 34.9
19:50 1021 30.15 850 25.1 18.3 65 33 2.1 35.7
19:55 1021 30.15 850 25.1 17.9 64.2 35 2.2 36
20:00 1021 30.15 850 25.1 17.9 64.2 36 2.8 37
20:05 1021 30.15 850 25.1 17.7 63.8 35 2 35.6
20:10 1021 30.15 850 25.1 17.2 63 37 2.6 36.6
20:15 1021 30.15 850 25.1 16.4 61.5 40 2.8 37
20:20 1021 30.15 850 25.1 16.1 61 39 2.1 35.9
20:25 1021 30.15 850 25.1 16.4 61.5 39 2.4 36.4
20:30 1021 30.15 850 25.1 17 62.5 32 0.5 32.8
20:35 1021 30.15 850 25.1 17.7 63.8 31 0.5 32.9
20:40 1021 30.15 850 25.1 18 64.3 31 0.6 33.1
20:45 1021 30.15 850 25.1 18 64.4 31 0.6 33.1
20:50 1021 30.15 850 25.1 18.1 64.6 30 0.5 33
20:55 1021 30.15 850 25.1 18.1 64.5 31 0.7 33.2
21:00 1021 30.15 850 25.1 17.8 64.1 31 0.7 33.3
21:05 1021 30.15 850 25.1 17.7 63.9 32 0.8 33.4
21:10 1021 30.15 850 25.1 17.6 63.6 32 0.7 33.2
21:15 1021 30.15 850 25.1 17.7 63.8 31 0.5 32.9
21:20 1021 30.15 850 25.1 17.7 63.8 32 0.8 33.4
21:25 1021 30.15 850 25.1 17.4 63.4 30 -0 32
21:30 1021 30.15 850 25.1 17.4 63.4 31 0.3 32.6
21:35 1021 30.15 850 25.1 17 62.6 32 0.2 32.4
21:40 1021 30.15 850 25.1 17 62.6 31 -0 31.9
21:45 1021 30.15 850 25.1 17 62.6 31 -0.3 31.5
21:50 1021 30.15 850 25.1 17.2 62.9 31 -0.2 31.7
21:55 1021 30.15 850 25.1 17.3 63.2 31 0.3 32.6
22:00 1021 30.15 850 25.1 17.5 63.5 30 -0 32
22:05 1021 30.15 850 25.1 17.6 63.7 30 -0.3 31.5
22:10 1021 30.15 850 25.1 17.7 63.8 30 0.1 32.1
22:15 1021 30.15 850 25.1 17.6 63.7 30 0.1 32.2
22:20 1021 30.15 850 25.1 17.8 64 31 0.3 32.6
22:25 1021 30.15 850 25.1 17.7 63.8 29 -0.4 31.4
22:30 1021 30.15 850 25.1 17.5 63.5 29 -0.4 31.2
22:35 1021 30.15 850 25.1 17.3 63.2 30 -0.3 31.5
22:40 1021 30.15 850 25.1 17 62.6 32 0.3 32.5
22:45 1021 30.15 850 25.1 16.6 62 33 0.3 32.5
22:50 1021 30.15 850 25.1 16.3 61.4 32 -0.2 31.7
22:55 1021 30.15 850 25.1 16.4 61.5 32 -0.3 31.5
23:00 1021 30.15 850 25.1 16.7 62 31 -0.4 31.3
23:05 1021 30.15 850 25.1 16.7 62.1 31 -0.2 31.6
23:10 1021 30.15 850 25.1 16.7 62 31 -0.4 31.3
23:15 1021 30.15 850 25.1 16.9 62.4 32 0.2 32.3
23:20 1021 30.15 850 25.1 16.8 62.2 32 0.2 32.4
23:25 1021 30.15 850 25.1 16.8 62.2 35 1.2 34.2
23:30 1021 30.15 850 25.1 16.6 61.8 33 0.5 33
23:35 1021 30.15 850 25.1 16.2 61.2 32 -0.3 31.5
23:40 1021 30.15 850 25.1 16.5 61.7 32 -0.3 31.5
23:45 1021 30.15 850 25.1 16.9 62.3 32 -0 32
23:50 1021 30.15 850 25.1 17.1 62.8 30 -0.5 31.1
23:55 1021 30.15 850 25.1 17.1 62.7 32 0.2 32.4
24:00 1021 30.15 850 25.1 16.6 61.9 32 -0 32